Time;durP1;ratioP1;P1;durP2;ratioP2;P2;SDS_P1;SDS_P2;PMS_P1;PMS_P2;Temp;Humidity;BMP_temperature;BMP_pressure;BME280_temperature;BME280_humidity;BME280_pressure;Samples;Min_cycle;Max_cycle;Signal;HPM_P1;HPM_P2
2023/05/29 00:00:20;;;;;;;12.15;2.60;;;11.20;99.90;;;;;;5047759;28;20133;-66
2023/05/29 00:02:46;;;;;;;12.07;2.92;;;11.10;99.90;;;;;;5064505;28;20473;-68
2023/05/29 00:05:13;;;;;;;11.23;2.65;;;11.10;99.90;;;;;;5075476;28;20048;-62
2023/05/29 00:07:39;;;;;;;12.07;2.60;;;11.00;99.90;;;;;;5039748;28;20047;-65
2023/05/29 00:10:07;;;;;;;11.32;2.78;;;11.00;99.90;;;;;;5073843;28;20016;-62
2023/05/29 00:12:32;;;;;;;11.52;2.30;;;11.00;99.90;;;;;;5074029;28;20016;-61
2023/05/29 00:14:58;;;;;;;11.32;2.47;;;11.00;99.90;;;;;;5073844;28;20362;-62
2023/05/29 00:17:24;;;;;;;11.48;2.35;;;10.90;99.90;;;;;;5072475;28;20020;-62
2023/05/29 00:19:50;;;;;;;9.23;2.33;;;10.90;99.90;;;;;;5068605;28;20044;-62
2023/05/29 00:22:16;;;;;;;9.65;2.65;;;10.90;99.90;;;;;;5061801;28;20028;-61
2023/05/29 00:24:41;;;;;;;12.20;2.38;;;10.80;99.90;;;;;;5072788;28;20033;-63
2023/05/29 00:27:08;;;;;;;9.00;2.25;;;10.80;99.90;;;;;;5072411;28;20473;-61
2023/05/29 00:29:35;;;;;;;8.77;1.95;;;10.70;99.90;;;;;;5073157;28;20017;-64
2023/05/29 00:32:01;;;;;;;12.07;2.05;;;10.70;99.90;;;;;;5073517;28;20099;-66
2023/05/29 00:34:27;;;;;;;7.57;1.95;;;10.70;99.90;;;;;;5055166;28;20104;-64
2023/05/29 00:36:55;;;;;;;8.23;1.95;;;10.60;99.90;;;;;;5055990;28;20017;-61
2023/05/29 00:39:21;;;;;;;12.25;2.40;;;10.60;99.90;;;;;;5074725;28;20112;-67
2023/05/29 00:41:50;;;;;;;13.20;2.72;;;10.60;99.90;;;;;;5072663;28;20016;-67
2023/05/29 00:44:17;;;;;;;10.68;2.33;;;10.60;99.90;;;;;;5073398;28;20025;-76
2023/05/29 00:46:43;;;;;;;11.35;2.10;;;10.50;99.90;;;;;;5073365;28;20040;-71
2023/05/29 00:49:09;;;;;;;12.73;2.80;;;10.50;99.90;;;;;;5058742;28;20020;-66
2023/05/29 00:51:36;;;;;;;10.88;1.90;;;10.50;99.90;;;;;;5072985;28;20032;-65
2023/05/29 00:54:02;;;;;;;9.60;2.58;;;10.50;99.90;;;;;;5070673;28;20374;-64
2023/05/29 00:56:27;;;;;;;12.00;2.53;;;10.40;99.90;;;;;;5044079;28;20037;-62
2023/05/29 00:58:53;;;;;;;13.52;2.20;;;10.40;99.90;;;;;;5070761;28;20029;-65
2023/05/29 01:01:21;;;;;;;11.20;2.17;;;10.40;99.90;;;;;;5072389;28;20473;-62
2023/05/29 01:03:48;;;;;;;11.85;2.63;;;10.40;99.90;;;;;;5055185;28;20425;-62
2023/05/29 01:06:14;;;;;;;9.80;2.83;;;10.30;99.90;;;;;;5073369;28;20144;-65
2023/05/29 01:08:39;;;;;;;8.68;2.13;;;10.30;99.90;;;;;;5070226;28;20046;-65
2023/05/29 01:11:28;;;;;;;11.27;2.28;;;10.30;99.90;;;;;;5066938;28;20488;-69
2023/05/29 01:13:57;;;;;;;9.73;2.20;;;10.20;99.90;;;;;;5063011;28;20085;-62
2023/05/29 01:16:51;;;;;;;7.25;2.15;;;10.20;99.90;;;;;;5072034;28;20126;-64
2023/05/29 01:19:32;;;;;;;11.95;2.97;;;10.20;99.90;;;;;;5057710;28;20017;-61
2023/05/29 01:22:14;;;;;;;10.38;2.28;;;10.10;99.90;;;;;;5062698;28;20058;-66
2023/05/29 01:24:46;;;;;;;;;;;10.10;99.90;;;;;;5070800;28;20017;-62
2023/05/29 01:27:14;;;;;;;13.82;3.03;;;10.10;99.90;;;;;;5072443;28;19916;-64
2023/05/29 01:29:42;;;;;;;11.23;2.22;;;10.10;99.90;;;;;;5059923;28;20029;-62
2023/05/29 01:32:08;;;;;;;9.50;2.20;;;10.00;99.90;;;;;;5064820;28;20055;-73
2023/05/29 01:34:34;;;;;;;9.98;2.72;;;10.00;99.90;;;;;;5073200;28;20044;-62
2023/05/29 01:37:00;;;;;;;10.65;2.53;;;9.90;99.90;;;;;;5072309;28;20461;-62
2023/05/29 01:39:27;;;;;;;8.55;2.22;;;9.90;99.90;;;;;;5053539;28;20028;-70
2023/05/29 01:41:54;;;;;;;13.98;2.33;;;9.90;99.90;;;;;;5062617;28;20032;-64
2023/05/29 01:44:21;;;;;;;10.90;2.88;;;9.90;99.90;;;;;;5072036;28;20193;-65
2023/05/29 01:46:48;;;;;;;7.40;1.80;;;9.80;99.90;;;;;;5070686;28;20036;-65
2023/05/29 01:49:15;;;;;;;9.65;2.40;;;9.80;99.90;;;;;;5072084;28;20020;-69
2023/05/29 01:51:41;;;;;;;11.43;2.63;;;9.80;99.90;;;;;;5071868;28;20508;-68
2023/05/29 01:54:07;;;;;;;9.32;2.10;;;9.70;99.90;;;;;;5067837;28;20485;-63
2023/05/29 01:56:33;;;;;;;13.40;3.50;;;9.70;99.90;;;;;;5067734;28;20081;-62
2023/05/29 01:59:00;;;;;;;11.85;2.90;;;9.70;99.90;;;;;;5070755;28;20032;-64
2023/05/29 02:01:26;;;;;;;13.52;2.75;;;9.70;99.90;;;;;;5064592;28;20470;-63
2023/05/29 02:03:52;;;;;;;11.88;2.63;;;9.60;99.90;;;;;;5071040;28;20075;-68
2023/05/29 02:06:17;;;;;;;13.75;2.70;;;9.60;99.90;;;;;;5069832;28;20064;-72
2023/05/29 02:08:43;;;;;;;15.10;2.60;;;9.60;99.90;;;;;;5049404;28;20024;-61
2023/05/29 02:11:09;;;;;;;16.30;2.63;;;9.60;99.90;;;;;;5063785;28;20437;-66
2023/05/29 02:13:34;;;;;;;11.88;3.17;;;9.60;99.90;;;;;;5066325;28;20028;-76
2023/05/29 02:16:00;;;;;;;12.18;2.88;;;9.60;99.90;;;;;;5070116;28;20029;-67
2023/05/29 02:18:26;;;;;;;15.30;2.42;;;9.50;99.90;;;;;;5068742;28;20025;-76
2023/05/29 02:20:51;;;;;;;12.07;2.83;;;9.50;99.90;;;;;;5059276;28;20021;-68
2023/05/29 02:23:19;;;;;;;11.25;2.50;;;9.50;99.90;;;;;;5070902;28;20420;-70
2023/05/29 02:25:45;;;;;;;10.68;2.95;;;9.50;99.90;;;;;;5072218;28;20112;-68
2023/05/29 02:28:10;;;;;;;16.33;3.10;;;9.40;99.90;;;;;;5060514;28;20036;-72
2023/05/29 02:30:36;;;;;;;12.63;2.60;;;9.50;99.90;;;;;;5066975;28;20017;-66
2023/05/29 02:33:01;;;;;;;13.75;2.67;;;9.40;99.90;;;;;;5064639;28;20404;-73
2023/05/29 02:35:27;;;;;;;14.23;3.47;;;9.40;99.90;;;;;;5060027;28;20033;-72
2023/05/29 02:37:53;;;;;;;11.00;2.60;;;9.40;99.90;;;;;;5051121;28;20033;-74
2023/05/29 02:40:20;;;;;;;8.13;2.35;;;9.40;99.90;;;;;;5070559;28;20043;-72
2023/05/29 02:42:46;;;;;;;16.05;2.78;;;9.30;99.90;;;;;;5071428;28;20374;-72
2023/05/29 02:45:12;;;;;;;9.25;2.90;;;9.30;99.90;;;;;;5071850;28;20033;-72
2023/05/29 02:47:37;;;;;;;15.15;2.47;;;9.30;99.90;;;;;;5058496;28;20043;-63
2023/05/29 02:50:04;;;;;;;11.02;3.88;;;9.30;99.90;;;;;;5070498;28;20032;-63
2023/05/29 02:52:32;;;;;;;10.90;2.67;;;9.30;99.90;;;;;;5071364;28;20029;-61
2023/05/29 02:54:58;;;;;;;8.90;2.72;;;9.30;99.90;;;;;;5054207;28;20025;-63
2023/05/29 02:57:24;;;;;;;11.73;2.15;;;9.20;99.90;;;;;;5069103;28;20027;-68
2023/05/29 02:59:50;;;;;;;14.77;3.67;;;9.20;99.90;;;;;;5052497;28;20048;-67
2023/05/29 03:02:15;;;;;;;7.28;2.35;;;9.20;99.90;;;;;;5070632;28;20066;-63
2023/05/29 03:04:41;;;;;;;10.43;2.67;;;9.10;99.90;;;;;;5065351;28;20025;-61
2023/05/29 03:07:09;;;;;;;12.15;2.90;;;9.10;99.90;;;;;;5070837;28;20032;-67
2023/05/29 03:09:35;;;;;;;11.38;2.78;;;9.10;99.90;;;;;;5069665;28;20461;-63
2023/05/29 03:12:03;;;;;;;17.20;4.30;;;9.10;99.90;;;;;;5071324;28;20043;-62
2023/05/29 03:14:29;;;;;;;6.35;1.85;;;9.00;99.90;;;;;;5073367;28;20067;-67
2023/05/29 03:16:55;;;;;;;12.05;2.40;;;9.00;99.90;;;;;;5057571;28;20480;-66
2023/05/29 03:19:20;;;;;;;11.50;2.80;;;9.00;99.90;;;;;;5056417;28;20397;-61
2023/05/29 03:21:46;;;;;;;10.65;2.47;;;9.00;99.90;;;;;;5058367;28;20052;-70
2023/05/29 03:24:15;;;;;;;14.82;2.60;;;9.00;99.90;;;;;;5067988;28;20143;-68
2023/05/29 03:26:40;;;;;;;16.33;2.72;;;9.00;99.90;;;;;;5054586;28;20033;-63
2023/05/29 03:29:07;;;;;;;10.63;2.80;;;8.90;99.90;;;;;;5074174;28;20393;-65
2023/05/29 03:31:32;;;;;;;12.50;3.25;;;8.90;99.90;;;;;;5074879;28;20039;-64
2023/05/29 03:33:59;;;;;;;12.27;3.20;;;8.90;99.90;;;;;;5072916;28;20025;-61
2023/05/29 03:36:25;;;;;;;10.93;2.38;;;8.90;99.90;;;;;;5064622;28;20474;-72
2023/05/29 03:38:51;;;;;;;6.53;2.20;;;8.90;99.90;;;;;;5066768;28;20032;-62
2023/05/29 03:41:16;;;;;;;8.95;2.47;;;8.90;99.90;;;;;;5075368;28;20465;-61
2023/05/29 03:43:42;;;;;;;10.43;2.47;;;8.90;99.90;;;;;;5065488;28;20039;-66
2023/05/29 03:46:07;;;;;;;14.23;3.00;;;8.90;99.90;;;;;;5074668;28;20119;-63
2023/05/29 03:48:33;;;;;;;11.55;2.80;;;8.90;99.90;;;;;;5074625;28;20028;-66
2023/05/29 03:50:58;;;;;;;18.27;2.50;;;8.90;99.90;;;;;;5075359;28;20039;-71
2023/05/29 03:53:24;;;;;;;8.48;2.35;;;8.90;99.90;;;;;;5073386;28;20047;-72
2023/05/29 03:55:50;;;;;;;13.13;3.08;;;8.90;99.90;;;;;;5067065;28;20107;-59
2023/05/29 03:58:15;;;;;;;10.85;2.92;;;8.90;99.90;;;;;;5063454;28;20031;-59
2023/05/29 04:00:41;;;;;;;10.18;2.22;;;8.90;99.90;;;;;;5043261;28;20440;-59
2023/05/29 04:03:07;;;;;;;10.13;2.70;;;8.90;99.90;;;;;;5070636;28;20024;-60
2023/05/29 04:05:33;;;;;;;9.23;2.47;;;8.90;99.90;;;;;;5070910;28;20029;-60
2023/05/29 04:07:59;;;;;;;10.90;2.17;;;8.90;99.90;;;;;;5064432;28;20117;-72
2023/05/29 04:10:24;;;;;;;9.50;2.10;;;8.90;99.90;;;;;;5068711;28;20024;-60
2023/05/29 04:12:50;;;;;;;9.93;2.45;;;8.90;99.90;;;;;;5069714;28;20118;-62
2023/05/29 04:15:16;;;;;;;12.38;2.75;;;8.90;99.90;;;;;;5061470;28;20026;-60
2023/05/29 04:17:41;;;;;;;7.63;2.40;;;9.00;99.90;;;;;;5067017;28;20438;-66
2023/05/29 04:20:08;;;;;;;15.40;2.95;;;9.00;99.90;;;;;;5051434;28;20029;-60
2023/05/29 04:22:37;;;;;;;10.63;2.60;;;9.00;99.90;;;;;;5068270;28;20068;-60
2023/05/29 04:25:06;;;;;;;15.50;3.17;;;9.00;99.90;;;;;;5070330;28;20067;-68
2023/05/29 04:27:32;;;;;;;7.43;2.63;;;9.00;99.90;;;;;;5064330;28;20467;-59
2023/05/29 04:29:58;;;;;;;15.93;2.83;;;9.10;99.90;;;;;;5062696;28;20012;-59
2023/05/29 04:32:24;;;;;;;10.68;3.13;;;9.10;99.90;;;;;;5067598;28;20452;-66
2023/05/29 04:34:51;;;;;;;13.40;2.22;;;9.10;99.90;;;;;;5065634;28;20710;-60
2023/05/29 04:37:17;;;;;;;13.25;2.70;;;9.10;99.90;;;;;;5068684;28;20025;-59
2023/05/29 04:39:42;;;;;;;16.20;2.75;;;9.20;99.90;;;;;;5069183;28;20092;-65
2023/05/29 04:42:08;;;;;;;5.45;2.25;;;9.20;99.90;;;;;;5053964;28;20441;-61
2023/05/29 04:44:34;;;;;;;9.82;2.53;;;9.20;99.90;;;;;;5067771;28;20123;-65
2023/05/29 04:47:02;;;;;;;8.93;2.35;;;9.20;99.90;;;;;;5074541;28;20036;-61
2023/05/29 04:49:28;;;;;;;15.35;3.88;;;9.20;99.90;;;;;;5072102;28;20029;-61
2023/05/29 04:51:54;;;;;;;12.02;2.13;;;9.20;99.90;;;;;;5073380;28;20389;-61
2023/05/29 04:54:22;;;;;;;9.13;2.50;;;9.30;99.90;;;;;;5065545;28;20480;-61
2023/05/29 04:56:47;;;;;;;13.38;3.22;;;9.30;99.90;;;;;;5064787;28;20032;-66
2023/05/29 04:59:13;;;;;;;9.68;2.22;;;9.30;99.90;;;;;;5068518;28;20040;-67
2023/05/29 05:01:39;;;;;;;11.65;2.67;;;9.40;99.90;;;;;;5070540;28;20086;-68
2023/05/29 05:04:05;;;;;;;13.45;3.03;;;9.40;99.90;;;;;;5067423;28;20385;-65
2023/05/29 05:06:31;;;;;;;14.45;2.25;;;9.40;99.90;;;;;;5072466;28;20054;-65
2023/05/29 05:08:56;;;;;;;12.23;2.50;;;9.50;99.90;;;;;;5061567;28;20020;-72
2023/05/29 05:11:23;;;;;;;10.13;2.63;;;9.50;99.90;;;;;;5064679;28;20032;-64
2023/05/29 05:13:49;;;;;;;13.07;2.85;;;9.60;99.90;;;;;;5070451;28;20022;-67
2023/05/29 05:16:16;;;;;;;10.43;2.22;;;9.70;99.90;;;;;;5073168;28;20024;-65
2023/05/29 05:18:43;;;;;;;9.70;2.22;;;9.70;99.90;;;;;;5052548;28;20017;-59
2023/05/29 05:21:09;;;;;;;8.77;2.45;;;9.70;99.90;;;;;;5064555;28;20025;-64
2023/05/29 05:23:34;;;;;;;12.38;3.13;;;9.80;99.90;;;;;;5063253;28;20040;-65
2023/05/29 05:26:00;;;;;;;11.02;2.40;;;9.80;99.90;;;;;;5071309;28;20067;-66
2023/05/29 05:28:26;;;;;;;17.38;2.72;;;9.80;99.90;;;;;;5071905;28;20029;-64
2023/05/29 05:30:51;;;;;;;10.00;2.20;;;9.90;99.90;;;;;;5054991;28;20047;-64
2023/05/29 05:33:17;;;;;;;7.60;2.35;;;9.90;99.90;;;;;;5072597;28;20484;-61
2023/05/29 05:35:43;;;;;;;11.60;3.20;;;10.00;99.90;;;;;;5052868;28;20185;-68
2023/05/29 05:38:09;;;;;;;10.82;2.58;;;10.10;99.90;;;;;;5045473;28;20028;-72
2023/05/29 05:40:34;;;;;;;12.95;2.78;;;10.10;99.90;;;;;;5073483;28;20021;-65
2023/05/29 05:43:00;;;;;;;10.20;3.13;;;10.20;99.90;;;;;;5071252;28;20054;-67
2023/05/29 05:45:25;;;;;;;10.63;2.13;;;10.20;99.90;;;;;;5053607;28;20071;-65
2023/05/29 05:47:51;;;;;;;15.43;2.58;;;10.30;99.90;;;;;;5063035;28;20043;-68
2023/05/29 05:50:17;;;;;;;9.10;2.20;;;10.30;99.90;;;;;;5072366;28;20071;-66
2023/05/29 05:52:42;;;;;;;7.82;1.92;;;10.40;99.90;;;;;;5071085;28;20078;-72
2023/05/29 05:55:08;;;;;;;7.22;1.75;;;10.50;99.90;;;;;;5073445;28;20082;-65
2023/05/29 05:57:35;;;;;;;13.48;2.10;;;10.50;99.90;;;;;;5062481;28;20063;-68
2023/05/29 06:00:04;;;;;;;12.82;2.30;;;10.60;99.90;;;;;;5067259;28;20074;-67
2023/05/29 06:02:30;;;;;;;12.48;2.85;;;10.70;99.90;;;;;;5044305;28;20048;-66
2023/05/29 06:04:55;;;;;;;10.98;2.22;;;10.70;99.90;;;;;;5070944;28;20060;-61
2023/05/29 06:07:21;;;;;;;7.40;2.63;;;10.80;99.90;;;;;;5062468;28;20560;-70
2023/05/29 06:09:47;;;;;;;10.38;2.60;;;10.80;99.90;;;;;;5070042;28;20025;-69
2023/05/29 06:12:12;;;;;;;7.85;2.40;;;10.90;99.90;;;;;;5071115;28;20037;-62
2023/05/29 06:14:38;;;;;;;5.25;1.55;;;10.90;99.90;;;;;;5071811;28;20103;-64
2023/05/29 06:17:04;;;;;;;6.63;2.15;;;11.00;99.90;;;;;;5067149;28;20170;-60
2023/05/29 06:19:29;;;;;;;11.27;1.92;;;11.10;99.90;;;;;;5069159;28;20020;-65
2023/05/29 06:21:55;;;;;;;7.65;2.35;;;11.10;99.90;;;;;;5071363;28;20025;-60
2023/05/29 06:24:21;;;;;;;9.35;2.55;;;11.20;99.90;;;;;;5072258;28;20029;-61
2023/05/29 06:26:46;;;;;;;9.95;2.47;;;11.10;99.90;;;;;;5071543;28;20036;-64
2023/05/29 06:29:12;;;;;;;9.30;1.85;;;11.20;99.90;;;;;;5068797;28;20469;-61
2023/05/29 06:31:37;;;;;;;15.32;2.50;;;11.20;99.90;;;;;;5065158;28;20374;-61
2023/05/29 06:34:03;;;;;;;10.77;2.30;;;11.30;99.90;;;;;;5070177;28;20046;-71
2023/05/29 06:36:28;;;;;;;11.43;2.50;;;11.40;99.90;;;;;;5071922;28;20025;-67
2023/05/29 06:38:54;;;;;;;8.82;2.17;;;11.40;99.90;;;;;;5048122;28;20028;-67
2023/05/29 06:41:20;;;;;;;10.63;3.10;;;11.50;99.90;;;;;;5069150;28;20027;-64
2023/05/29 06:43:46;;;;;;;7.30;1.90;;;11.50;99.90;;;;;;5072929;28;20036;-63
2023/05/29 06:46:12;;;;;;;7.63;1.90;;;11.60;99.90;;;;;;5066846;28;20033;-65
2023/05/29 06:48:38;;;;;;;9.00;2.10;;;11.60;99.90;;;;;;5071285;28;20035;-59
2023/05/29 06:51:08;;;;;;;7.57;2.17;;;11.70;99.90;;;;;;5067859;28;20021;-61
2023/05/29 06:53:37;;;;;;;11.60;1.92;;;11.70;99.90;;;;;;5072887;28;20099;-59
2023/05/29 06:56:03;;;;;;;8.88;2.20;;;11.80;99.90;;;;;;5074167;28;20029;-61
2023/05/29 06:58:30;;;;;;;7.97;1.88;;;12.00;99.90;;;;;;5076592;28;20381;-65
2023/05/29 07:00:56;;;;;;;11.73;2.63;;;12.10;99.90;;;;;;5075045;28;20111;-66
2023/05/29 07:03:22;;;;;;;10.85;2.85;;;12.10;99.90;;;;;;5069223;28;20608;-68
2023/05/29 07:05:47;;;;;;;7.18;1.98;;;12.30;99.90;;;;;;5067468;28;20224;-66
2023/05/29 07:08:13;;;;;;;8.18;1.80;;;12.30;99.90;;;;;;5063544;28;20478;-62
2023/05/29 07:10:39;;;;;;;11.00;2.42;;;12.40;99.90;;;;;;5072486;28;20043;-72
2023/05/29 07:13:06;;;;;;;20.63;3.30;;;12.40;99.90;;;;;;5063803;28;20037;-66
2023/05/29 07:15:32;;;;;;;12.38;2.13;;;12.40;99.90;;;;;;5075854;28;20016;-63
2023/05/29 07:17:57;;;;;;;9.13;1.35;;;12.40;99.90;;;;;;5075051;28;20028;-67
2023/05/29 07:20:23;;;;;;;8.52;1.80;;;12.40;99.90;;;;;;5075644;28;20029;-67
2023/05/29 07:22:49;;;;;;;11.65;2.13;;;12.50;99.90;;;;;;5076047;28;20496;-60
2023/05/29 07:25:15;;;;;;;10.80;2.40;;;12.60;99.90;;;;;;5068196;28;20025;-61
2023/05/29 07:27:40;;;;;;;12.30;2.72;;;12.60;99.90;;;;;;5074670;28;20044;-67
2023/05/29 07:30:07;;;;;;;13.68;2.15;;;12.70;99.90;;;;;;5076090;28;20040;-66
2023/05/29 07:32:33;;;;;;;9.23;3.00;;;12.70;99.90;;;;;;5075073;28;20020;-72
2023/05/29 07:34:59;;;;;;;9.70;2.08;;;12.70;99.90;;;;;;5075875;28;20108;-66
2023/05/29 07:37:24;;;;;;;9.55;2.17;;;12.80;99.90;;;;;;5075566;28;20056;-62
2023/05/29 07:39:50;;;;;;;13.27;2.55;;;12.90;99.90;;;;;;5075516;28;20032;-62
2023/05/29 07:42:15;;;;;;;7.40;1.80;;;12.90;99.90;;;;;;5075735;28;20037;-63
2023/05/29 07:44:42;;;;;;;10.25;2.33;;;13.00;99.90;;;;;;5074665;28;20048;-63
2023/05/29 07:47:08;;;;;;;6.10;1.67;;;13.00;99.90;;;;;;5075594;28;20067;-70
2023/05/29 07:49:35;;;;;;;9.70;1.70;;;13.10;99.90;;;;;;5075374;28;20024;-61
2023/05/29 07:52:01;;;;;;;11.98;1.65;;;13.10;99.90;;;;;;5074954;28;20036;-65
2023/05/29 07:54:27;;;;;;;10.38;1.85;;;13.20;99.90;;;;;;5057629;28;20044;-63
2023/05/29 07:56:53;;;;;;;5.93;1.90;;;13.20;99.90;;;;;;5075561;28;20055;-65
2023/05/29 07:59:18;;;;;;;9.65;2.13;;;13.30;99.90;;;;;;5074214;28;20041;-62
2023/05/29 08:01:44;;;;;;;16.38;2.40;;;13.40;99.90;;;;;;5057119;28;20078;-69
2023/05/29 08:04:10;;;;;;;8.25;1.98;;;13.40;99.90;;;;;;5075118;28;20036;-65
2023/05/29 08:06:36;;;;;;;9.63;1.95;;;13.50;99.90;;;;;;5074286;28;20043;-70
2023/05/29 08:09:03;;;;;;;12.25;2.38;;;13.60;99.90;;;;;;5075342;28;20100;-61
2023/05/29 08:11:29;;;;;;;11.13;2.30;;;13.70;99.90;;;;;;5057369;28;20393;-73
2023/05/29 08:13:55;;;;;;;7.57;1.88;;;13.80;99.90;;;;;;5074522;28;20032;-61
2023/05/29 08:16:22;;;;;;;7.13;2.35;;;13.80;99.90;;;;;;5075051;28;20440;-65
2023/05/29 08:18:47;;;;;;;7.13;1.75;;;13.90;99.90;;;;;;5074665;28;20021;-65
2023/05/29 08:21:13;;;;;;;8.70;1.90;;;14.00;99.90;;;;;;5074366;28;20031;-62
2023/05/29 08:23:39;;;;;;;8.15;2.05;;;14.20;99.90;;;;;;5075011;28;20031;-70
2023/05/29 08:26:05;;;;;;;8.07;2.90;;;14.30;99.90;;;;;;5074820;28;20098;-65
2023/05/29 08:28:30;;;;;;;7.00;1.83;;;14.30;99.50;;;;;;5074719;28;20060;-73
2023/05/29 08:30:56;;;;;;;9.60;2.35;;;14.40;99.80;;;;;;5075384;28;20101;-66
2023/05/29 08:33:21;;;;;;;5.32;1.73;;;14.40;99.20;;;;;;5075256;28;20021;-66
2023/05/29 08:35:47;;;;;;;11.40;2.30;;;14.40;99.20;;;;;;5074472;28;20024;-70
2023/05/29 08:38:13;;;;;;;7.15;1.85;;;14.30;98.40;;;;;;5075333;28;20021;-67
2023/05/29 08:40:38;;;;;;;8.95;1.92;;;14.40;98.20;;;;;;5056944;28;20527;-68
2023/05/29 08:43:11;;;;;;;13.00;2.55;;;14.30;97.90;;;;;;5074790;28;20025;-63
2023/05/29 08:45:42;;;;;;;7.10;1.80;;;14.30;97.90;;;;;;5057149;28;20024;-65
2023/05/29 08:48:08;;;;;;;;;;;14.40;98.40;;;;;;5074748;28;20032;-60
2023/05/29 08:50:35;;;;;;;9.50;2.28;;;14.50;98.00;;;;;;5073006;28;19909;-64
2023/05/29 08:53:00;;;;;;;9.77;2.15;;;14.60;97.60;;;;;;5075054;28;20054;-66
2023/05/29 08:55:26;;;;;;;6.75;1.80;;;14.70;97.00;;;;;;5074212;28;20128;-67
2023/05/29 08:57:52;;;;;;;7.43;1.90;;;14.90;97.10;;;;;;5074895;28;20033;-70
2023/05/29 09:00:20;;;;;;;4.05;1.42;;;15.00;96.80;;;;;;5074266;28;20037;-66
2023/05/29 09:02:45;;;;;;;7.65;2.13;;;15.00;96.00;;;;;;5074088;28;20154;-62
2023/05/29 09:05:12;;;;;;;8.48;2.90;;;15.00;95.30;;;;;;5074625;28;20048;-60
2023/05/29 09:07:39;;;;;;;6.55;1.90;;;15.00;95.30;;;;;;5074484;28;20085;-61
2023/05/29 09:10:09;;;;;;;7.57;1.92;;;15.00;95.50;;;;;;5073703;28;20096;-62
2023/05/29 09:12:35;;;;;;;7.75;1.80;;;15.10;95.30;;;;;;5056288;28;20024;-66
2023/05/29 09:15:01;;;;;;;6.10;1.70;;;15.20;95.60;;;;;;5074619;28;20020;-61
2023/05/29 09:17:32;;;;;;;9.20;2.17;;;15.40;95.50;;;;;;5073733;28;20103;-62
2023/05/29 09:19:58;;;;;;;12.80;2.30;;;15.40;94.00;;;;;;5074388;28;20522;-62
2023/05/29 09:22:24;;;;;;;7.15;2.42;;;15.40;93.80;;;;;;5074141;28;20024;-63
2023/05/29 09:24:50;;;;;;;7.03;2.22;;;15.30;93.90;;;;;;5073804;28;20039;-61
2023/05/29 09:27:17;;;;;;;7.97;1.90;;;15.30;94.10;;;;;;5074372;28;20059;-61
2023/05/29 09:29:46;;;;;;;13.25;2.28;;;15.40;94.50;;;;;;5074264;28;20504;-61
2023/05/29 09:32:19;;;;;;;8.48;1.80;;;15.60;94.40;;;;;;5073482;28;20071;-65
2023/05/29 09:34:45;;;;;;;11.50;2.30;;;15.80;94.20;;;;;;5073952;28;20013;-71
2023/05/29 09:37:12;;;;;;;9.18;2.20;;;15.90;93.70;;;;;;5073551;28;20036;-64
2023/05/29 09:39:48;;;;;;;7.78;2.17;;;16.00;92.70;;;;;;5073804;28;20031;-64
2023/05/29 09:42:16;;;;;;;8.13;2.45;;;16.10;92.10;;;;;;5074125;28;20074;-62
2023/05/29 09:44:44;;;;;;;5.18;2.35;;;16.10;91.90;;;;;;5073006;28;20017;-61
2023/05/29 09:47:17;;;;;;;7.82;1.65;;;16.20;92.20;;;;;;5073795;28;20040;-69
2023/05/29 09:49:44;;;;;;;6.90;2.20;;;16.20;91.50;;;;;;5073850;28;20019;-64
2023/05/29 09:52:17;;;;;;;10.55;2.22;;;16.10;91.60;;;;;;5073088;28;20021;-65
2023/05/29 09:54:46;;;;;;;8.85;1.83;;;16.10;92.20;;;;;;5073958;28;20023;-62
2023/05/29 09:57:17;;;;;;;7.20;2.38;;;16.20;92.10;;;;;;5073492;28;20101;-64
2023/05/29 09:59:51;;;;;;;7.28;2.50;;;16.20;91.60;;;;;;5072901;28;20044;-63
2023/05/29 10:02:17;;;;;;;5.10;1.80;;;16.20;91.80;;;;;;5073692;28;20020;-67
2023/05/29 10:04:44;;;;;;;9.75;2.55;;;16.30;91.60;;;;;;5073567;28;20033;-62
2023/05/29 10:07:28;;;;;;;8.70;2.05;;;16.40;91.30;;;;;;5072832;28;20358;-63
2023/05/29 10:10:05;;;;;;;10.80;2.20;;;16.40;90.60;;;;;;5073501;28;20017;-66
2023/05/29 10:12:47;;;;;;;8.98;2.70;;;16.50;90.30;;;;;;5072797;28;20052;-61
2023/05/29 10:15:14;;;;;;;8.95;2.10;;;16.50;89.90;;;;;;5072046;28;20028;-61
2023/05/29 10:17:55;;;;;;;6.03;1.83;;;16.50;88.60;;;;;;5057403;28;20033;-61
2023/05/29 10:20:22;;;;;;;10.27;2.00;;;16.50;89.30;;;;;;5052621;28;20544;-64
2023/05/29 10:22:51;;;;;;;6.13;1.48;;;16.60;89.60;;;;;;5053491;28;20117;-61
2023/05/29 10:25:21;;;;;;;6.85;2.13;;;16.70;88.00;;;;;;5053158;28;20023;-63
2023/05/29 10:27:48;;;;;;;7.28;1.83;;;17.00;86.60;;;;;;5070344;28;20123;-61
2023/05/29 10:30:45;;;;;;;4.10;1.45;;;17.10;85.40;;;;;;5072752;28;20362;-62
2023/05/29 10:33:26;;;;;;;3.75;1.80;;;17.20;83.10;;;;;;5035162;28;20458;-60
2023/05/29 10:36:01;;;;;;;;;;;17.30;81.40;;;;;;5035807;28;20086;-62
2023/05/29 10:38:26;;;;;;;5.50;1.52;;;17.30;78.60;;;;;;5052978;28;19904;-60
2023/05/29 10:40:52;;;;;;;5.90;1.90;;;17.20;79.80;;;;;;5052460;28;20028;-60
2023/05/29 10:43:47;;;;;;;8.00;1.88;;;17.30;80.00;;;;;;5053127;28;20367;-66
2023/05/29 10:46:12;;;;;;;8.00;2.08;;;17.50;77.90;;;;;;5029458;28;20044;-67
2023/05/29 10:48:40;;;;;;;7.63;1.60;;;17.60;75.80;;;;;;5052418;28;20032;-61
2023/05/29 10:51:10;;;;;;;7.20;2.15;;;17.60;74.50;;;;;;5053398;28;20013;-62
2023/05/29 10:53:40;;;;;;;9.65;2.10;;;17.50;74.50;;;;;;5052834;28;20033;-63
2023/05/29 10:56:10;;;;;;;4.80;1.90;;;17.50;75.00;;;;;;5052250;28;20079;-61
2023/05/29 10:58:36;;;;;;;7.88;1.92;;;17.50;74.00;;;;;;5053033;28;20474;-62
2023/05/29 11:01:03;;;;;;;7.32;1.50;;;17.60;73.70;;;;;;5052839;28;20029;-62
2023/05/29 11:03:32;;;;;;;6.82;1.77;;;17.60;71.60;;;;;;5034190;28;20441;-61
2023/05/29 11:06:01;;;;;;;6.78;2.33;;;17.60;71.40;;;;;;5052862;28;20024;-64
2023/05/29 11:08:47;;;;;;;8.50;2.70;;;17.60;72.20;;;;;;5052084;28;20025;-62
2023/05/29 11:11:29;;;;;;;5.82;1.73;;;17.70;70.60;;;;;;5052602;28;20155;-61
2023/05/29 11:13:56;;;;;;;7.45;2.05;;;17.60;69.20;;;;;;5052927;28;20029;-62
2023/05/29 11:16:25;;;;;;;7.70;1.90;;;17.60;70.80;;;;;;5052097;28;20028;-62
2023/05/29 11:18:52;;;;;;;5.50;2.13;;;17.80;70.80;;;;;;5052495;28;20025;-62
2023/05/29 11:21:52;;;;;;;7.68;2.60;;;17.80;68.80;;;;;;5052809;28;20029;-62
2023/05/29 11:24:28;;;;;;;5.38;2.00;;;17.80;67.90;;;;;;5033698;28;20028;-61
2023/05/29 11:27:00;;;;;;;8.35;2.03;;;17.90;68.50;;;;;;5052428;28;20037;-61
2023/05/29 11:29:28;;;;;;;9.70;2.38;;;18.20;69.00;;;;;;5052283;28;20484;-63
2023/05/29 11:32:10;;;;;;;8.13;2.05;;;18.20;68.00;;;;;;5051982;28;20017;-61
2023/05/29 11:34:40;;;;;;;5.78;1.70;;;18.40;69.20;;;;;;5054252;28;20021;-61
2023/05/29 11:37:06;;;;;;;6.50;1.67;;;18.40;69.00;;;;;;5060046;28;20029;-61
2023/05/29 11:39:36;;;;;;;7.55;1.75;;;18.40;65.90;;;;;;5056065;28;20021;-61
2023/05/29 11:42:01;;;;;;;6.03;1.92;;;18.50;65.50;;;;;;5057982;28;20536;-61
2023/05/29 11:44:27;;;;;;;7.15;2.10;;;18.60;66.00;;;;;;5057547;28;20017;-62
2023/05/29 11:47:07;;;;;;;9.93;1.98;;;18.70;67.00;;;;;;5075916;28;20460;-63
2023/05/29 11:49:34;;;;;;;9.32;2.40;;;18.70;66.10;;;;;;5076232;28;20073;-63
2023/05/29 11:52:10;;;;;;;7.45;2.25;;;18.80;66.30;;;;;;5075425;28;20163;-69
2023/05/29 11:54:36;;;;;;;9.52;2.38;;;18.70;64.50;;;;;;5075976;28;20020;-62
2023/05/29 11:57:02;;;;;;;9.80;2.08;;;18.70;65.50;;;;;;5075912;28;20025;-61
2023/05/29 11:59:34;;;;;;;7.93;2.38;;;18.80;65.80;;;;;;5057208;28;20375;-62
2023/05/29 12:02:03;;;;;;;8.15;2.05;;;18.90;65.60;;;;;;5076028;28;20032;-62
2023/05/29 12:04:29;;;;;;;8.85;1.67;;;19.00;65.60;;;;;;5075736;28;20025;-64
2023/05/29 12:06:55;;;;;;;5.45;2.05;;;19.00;65.10;;;;;;5057290;28;20129;-62
2023/05/29 12:09:28;;;;;;;7.47;2.42;;;18.80;64.70;;;;;;5075430;28;20063;-61
2023/05/29 12:12:01;;;;;;;6.50;2.38;;;18.70;65.10;;;;;;5074985;28;20094;-61
2023/05/29 12:14:26;;;;;;;9.38;2.10;;;18.80;65.70;;;;;;5075541;28;20020;-61
2023/05/29 12:16:52;;;;;;;9.02;1.90;;;18.90;63.30;;;;;;5075673;28;20027;-63
2023/05/29 12:19:18;;;;;;;7.57;2.00;;;18.90;62.60;;;;;;5074925;28;20378;-61
2023/05/29 12:21:44;;;;;;;7.03;2.40;;;19.00;62.60;;;;;;5075615;28;20021;-61
2023/05/29 12:24:10;;;;;;;6.03;1.60;;;19.00;61.20;;;;;;5075615;28;20021;-62
2023/05/29 12:26:36;;;;;;;9.38;2.05;;;19.00;60.60;;;;;;5074873;28;20032;-70
2023/05/29 12:29:05;;;;;;;7.97;2.13;;;19.00;61.40;;;;;;5057148;28;20177;-66
2023/05/29 12:31:31;;;;;;;6.22;1.77;;;18.90;61.20;;;;;;5075237;28;20149;-61
2023/05/29 12:34:08;;;;;;;9.40;2.30;;;18.90;61.60;;;;;;5057638;28;20495;-64
2023/05/29 12:36:34;;;;;;;7.60;2.13;;;19.10;60.90;;;;;;5075242;28;20108;-62
2023/05/29 12:39:06;;;;;;;6.25;2.20;;;19.10;59.20;;;;;;5075143;28;20052;-61
2023/05/29 12:41:34;;;;;;;7.15;1.83;;;19.10;59.90;;;;;;5074711;28;20476;-61
2023/05/29 12:44:02;;;;;;;7.32;1.90;;;19.10;60.70;;;;;;5075147;28;20369;-63
2023/05/29 12:46:38;;;;;;;5.55;1.70;;;19.20;57.60;;;;;;5073854;28;20028;-65